Time;durP1;ratioP1;P1;durP2;ratioP2;P2;SDS_P1;SDS_P2;PMS_P1;PMS_P2;Temp;Humidity;BMP_temperature;BMP_pressure;BME280_temperature;BME280_humidity;BME280_pressure;Samples;Min_cycle;Max_cycle;Signal;HPM_P1;HPM_P2
2021/05/31 04:01:13;;;;;;;3.60;2.93;;;11.40;99.90;;;;;;5616602;23;20505;-66
2021/05/31 04:03:40;;;;;;;3.60;3.30;;;11.40;99.60;;;;;;4958815;29;20938;-67
2021/05/31 04:06:13;;;;;;;3.53;3.23;;;11.40;99.90;;;;;;4958834;29;20551;-67
2021/05/31 04:11:36;;;;;;;3.60;3.40;;;11.40;99.90;;;;;;4958961;28;20468;-68
2021/05/31 04:14:04;;;;;;;3.23;3.03;;;11.40;99.90;;;;;;4958912;28;20925;-67
2021/05/31 04:16:33;;;;;;;3.50;3.30;;;11.40;99.90;;;;;;4960156;29;20461;-67
2021/05/31 04:18:59;;;;;;;3.40;3.20;;;11.40;99.90;;;;;;4960591;29;20463;-67
2021/05/31 04:21:25;;;;;;;3.40;3.17;;;11.50;99.90;;;;;;4959713;28;20534;-67
2021/05/31 04:23:51;;;;;;;5.93;3.30;;;11.50;99.90;;;;;;4960423;29;20470;-66
2021/05/31 04:26:18;;;;;;;3.23;3.03;;;11.50;99.90;;;;;;4959558;29;20478;-67
2021/05/31 04:28:44;;;;;;;5.03;2.97;;;11.50;99.90;;;;;;4958630;29;20468;-67
2021/05/31 04:31:10;;;;;;;4.67;3.10;;;11.50;99.90;;;;;;4958122;28;20538;-67
2021/05/31 04:33:38;;;;;;;3.00;2.73;;;11.60;99.90;;;;;;4958720;29;20452;-67
2021/05/31 04:36:05;;;;;;;2.97;2.87;;;11.60;99.90;;;;;;4958584;29;20448;-67
2021/05/31 04:38:31;;;;;;;5.73;3.40;;;11.70;99.90;;;;;;4958376;29;20510;-67
2021/05/31 04:40:57;;;;;;;3.83;3.00;;;11.70;99.90;;;;;;4958537;28;20482;-67
2021/05/31 04:43:24;;;;;;;3.50;3.23;;;11.60;99.90;;;;;;4958548;29;20814;-67
2021/05/31 04:45:50;;;;;;;3.50;3.20;;;11.60;99.90;;;;;;4958283;29;20511;-67
2021/05/31 04:48:16;;;;;;;4.43;4.03;;;11.70;99.90;;;;;;4958468;29;20530;-67
2021/05/31 04:50:44;;;;;;;3.87;3.57;;;11.70;99.90;;;;;;4958178;28;20482;-67
2021/05/31 04:53:10;;;;;;;3.37;3.10;;;11.70;99.90;;;;;;4958101;29;20798;-66
2021/05/31 04:55:37;;;;;;;5.70;3.50;;;11.80;99.90;;;;;;4958039;29;20503;-67
2021/05/31 04:58:04;;;;;;;3.97;3.40;;;11.80;99.90;;;;;;4958156;29;20555;-67
2021/05/31 05:00:30;;;;;;;3.70;3.23;;;11.80;99.90;;;;;;4957847;28;20475;-67
2021/05/31 05:02:56;;;;;;;3.77;3.27;;;11.90;99.90;;;;;;4958103;29;20436;-67
2021/05/31 05:05:23;;;;;;;4.10;3.80;;;11.90;99.90;;;;;;4957940;29;20862;-66
2021/05/31 05:07:50;;;;;;;3.97;3.70;;;11.90;99.90;;;;;;4958370;29;20455;-66
2021/05/31 05:10:18;;;;;;;4.20;3.90;;;11.90;99.90;;;;;;4958209;28;20973;-67
2021/05/31 05:12:45;;;;;;;3.93;3.67;;;12.00;99.90;;;;;;4957761;28;20832;-67
2021/05/31 05:15:13;;;;;;;4.00;3.70;;;12.10;99.90;;;;;;4958052;29;20448;-67
2021/05/31 05:17:39;;;;;;;3.97;3.60;;;12.20;99.90;;;;;;4958129;29;20455;-66
2021/05/31 05:20:07;;;;;;;5.03;3.70;;;12.30;99.90;;;;;;4957654;29;20502;-66
2021/05/31 05:22:33;;;;;;;5.23;3.83;;;12.50;99.90;;;;;;4957862;28;20487;-66
2021/05/31 05:25:01;;;;;;;5.90;3.90;;;12.70;99.90;;;;;;4957515;29;20480;-67
2021/05/31 05:27:27;;;;;;;4.77;2.90;;;12.80;99.90;;;;;;4957284;29;20455;-66
2021/05/31 05:29:53;;;;;;;4.63;2.90;;;12.90;99.90;;;;;;4957256;29;20456;-67
2021/05/31 05:32:19;;;;;;;3.33;3.13;;;13.00;99.60;;;;;;4957008;28;20480;-66
2021/05/31 05:34:46;;;;;;;3.37;3.10;;;13.10;98.50;;;;;;4957149;29;20510;-66
2021/05/31 05:37:15;;;;;;;4.40;3.30;;;13.30;97.60;;;;;;4957334;29;20456;-65
2021/05/31 05:42:46;;;;;;;3.27;3.07;;;13.40;96.90;;;;;;4956563;28;20470;-65
2021/05/31 05:47:57;;;;;;;2.83;2.70;;;13.70;97.50;;;;;;4956666;29;20454;-65
2021/05/31 05:50:23;;;;;;;9.77;3.20;;;13.80;97.60;;;;;;4956773;28;20518;-65
2021/05/31 05:52:49;;;;;;;3.57;3.33;;;14.10;97.50;;;;;;4956359;29;20945;-66
2021/05/31 05:55:16;;;;;;;3.13;2.93;;;14.20;97.60;;;;;;4956637;29;20466;-65
2021/05/31 05:57:44;;;;;;;7.30;3.53;;;14.30;97.20;;;;;;4956759;29;20515;-65
2021/05/31 06:00:12;;;;;;;5.43;3.43;;;14.50;99.90;;;;;;4956809;29;20455;-65
2021/05/31 06:02:39;;;;;;;4.70;3.50;;;14.80;99.90;;;;;;4956561;28;20495;-64
2021/05/31 06:05:06;;;;;;;4.23;3.80;;;14.90;99.90;;;;;;4957629;29;20479;-65
2021/05/31 06:07:33;;;;;;;3.30;3.10;;;15.20;99.90;;;;;;4956983;29;20495;-64
2021/05/31 06:10:00;;;;;;;3.40;3.10;;;15.30;99.90;;;;;;4956477;29;20813;-65
2021/05/31 06:12:26;;;;;;;4.43;3.93;;;15.50;99.00;;;;;;4957004;28;21033;-66
2021/05/31 06:14:54;;;;;;;7.60;3.87;;;15.50;97.20;;;;;;4956548;29;20459;-65
2021/05/31 06:17:20;;;;;;;6.07;3.57;;;15.80;96.00;;;;;;4956319;29;20482;-65
2021/05/31 06:19:46;;;;;;;4.03;3.63;;;15.90;95.50;;;;;;4956992;29;20455;-66
2021/05/31 06:22:12;;;;;;;4.27;3.87;;;16.00;95.40;;;;;;4956138;28;20479;-65
2021/05/31 06:24:39;;;;;;;3.70;3.40;;;15.90;94.30;;;;;;4955281;28;20475;-65
2021/05/31 06:27:06;;;;;;;4.30;3.50;;;16.00;95.00;;;;;;4956223;29;20456;-66
2021/05/31 06:29:32;;;;;;;3.67;3.37;;;16.30;94.20;;;;;;4956196;29;20460;-67
2021/05/31 06:32:00;;;;;;;4.03;3.70;;;16.30;94.20;;;;;;4956133;28;20857;-65
2021/05/31 06:34:26;;;;;;;3.97;3.73;;;16.50;95.00;;;;;;4956060;29;20467;-66
2021/05/31 06:36:55;;;;;;;4.03;3.70;;;16.80;94.30;;;;;;4955796;29;20943;-66
2021/05/31 06:39:21;;;;;;;3.80;3.50;;;17.10;94.50;;;;;;4955954;29;20529;-66
2021/05/31 06:41:47;;;;;;;5.00;4.13;;;17.20;92.40;;;;;;4955873;28;20480;-66
2021/05/31 06:44:13;;;;;;;4.03;3.67;;;17.20;92.00;;;;;;4956015;29;20467;-65
2021/05/31 06:46:40;;;;;;;3.30;3.10;;;17.40;92.80;;;;;;4956495;29;20443;-65
2021/05/31 06:49:07;;;;;;;3.57;3.37;;;17.60;90.90;;;;;;4956057;29;20455;-65
2021/05/31 06:51:34;;;;;;;4.27;3.67;;;17.60;91.90;;;;;;4955562;28;20483;-66
2021/05/31 06:54:00;;;;;;;3.80;3.60;;;17.90;91.70;;;;;;4955592;29;20491;-65
2021/05/31 06:56:26;;;;;;;4.70;4.30;;;18.30;91.60;;;;;;4955996;29;20801;-66
2021/05/31 06:58:52;;;;;;;7.00;3.97;;;18.80;91.10;;;;;;4955642;29;20502;-65
2021/05/31 07:01:19;;;;;;;4.40;4.10;;;18.70;90.90;;;;;;4955272;28;20994;-66
2021/05/31 07:03:45;;;;;;;4.50;3.80;;;19.70;87.90;;;;;;4955843;29;20459;-66
2021/05/31 07:06:13;;;;;;;5.57;3.90;;;20.30;82.30;;;;;;4955679;29;20480;-65
2021/05/31 07:08:39;;;;;;;3.60;3.40;;;20.70;83.90;;;;;;4955675;29;20471;-66
2021/05/31 07:11:08;;;;;;;4.53;3.50;;;21.20;82.50;;;;;;4955640;28;20479;-65
2021/05/31 07:13:35;;;;;;;3.93;3.63;;;21.90;79.50;;;;;;4955584;29;20456;-65
2021/05/31 07:16:01;;;;;;;3.30;3.00;;;22.80;76.70;;;;;;4955590;29;20452;-66
2021/05/31 07:18:27;;;;;;;4.60;4.20;;;22.90;73.60;;;;;;4955485;29;20518;-66
2021/05/31 07:20:53;;;;;;;10.43;3.60;;;22.90;71.50;;;;;;4955091;28;21072;-66
2021/05/31 07:23:21;;;;;;;4.87;4.17;;;22.70;73.70;;;;;;4955611;29;20818;-66
2021/05/31 07:25:48;;;;;;;3.77;3.17;;;23.40;69.10;;;;;;4955214;29;20998;-66
2021/05/31 07:28:15;;;;;;;3.50;2.57;;;24.10;66.70;;;;;;4955479;28;20455;-65
2021/05/31 07:30:41;;;;;;;2.27;2.17;;;23.80;57.70;;;;;;4955346;28;20475;-66
2021/05/31 07:33:10;;;;;;;3.63;2.30;;;23.50;56.70;;;;;;4955348;29;20460;-65
2021/05/31 07:35:36;;;;;;;3.30;2.20;;;24.30;56.10;;;;;;4956866;28;20868;-66
2021/05/31 07:38:03;;;;;;;2.73;2.43;;;24.70;54.80;;;;;;4959394;29;20470;-65
2021/05/31 07:40:30;;;;;;;3.20;2.23;;;24.50;53.90;;;;;;4959150;28;20459;-65
2021/05/31 07:42:57;;;;;;;2.20;2.10;;;24.50;52.20;;;;;;4959273;29;20462;-66
2021/05/31 07:45:24;;;;;;;5.23;2.53;;;24.30;53.40;;;;;;4959254;29;20475;-66
2021/05/31 07:47:50;;;;;;;2.30;2.20;;;24.70;52.10;;;;;;4959285;29;20507;-66
2021/05/31 07:50:17;;;;;;;5.70;2.47;;;25.20;51.80;;;;;;4959615;28;20510;-66
2021/05/31 07:52:43;;;;;;;2.13;2.03;;;26.00;50.90;;;;;;4958916;29;20459;-67
2021/05/31 07:55:12;;;;;;;2.10;2.00;;;25.40;50.80;;;;;;4959016;29;20503;-66
2021/05/31 07:57:40;;;;;;;2.40;2.30;;;25.30;51.00;;;;;;4959074;29;20463;-65
2021/05/31 08:00:09;;;;;;;2.40;2.30;;;25.40;49.50;;;;;;4958638;29;20937;-66
2021/05/31 08:02:36;;;;;;;3.23;2.93;;;25.40;49.80;;;;;;4958506;28;20478;-66
2021/05/31 08:05:03;;;;;;;2.73;2.57;;;24.70;48.90;;;;;;4958808;28;20542;-67
2021/05/31 08:07:29;;;;;;;3.17;3.00;;;25.20;48.90;;;;;;4958928;29;20490;-66
2021/05/31 08:09:55;;;;;;;3.43;3.03;;;25.80;49.20;;;;;;4958705;29;20463;-66
2021/05/31 08:12:21;;;;;;;3.73;3.33;;;25.90;48.30;;;;;;4958638;28;20475;-67
2021/05/31 08:14:50;;;;;;;5.23;4.80;;;25.00;49.30;;;;;;4958663;29;20492;-65
2021/05/31 08:17:16;;;;;;;3.03;2.83;;;25.30;50.10;;;;;;4958614;29;20494;-65
2021/05/31 08:19:42;;;;;;;2.53;2.30;;;25.20;50.30;;;;;;4958697;29;20459;-66
2021/05/31 08:22:09;;;;;;;2.57;2.47;;;25.60;49.70;;;;;;4958990;28;20475;-66
2021/05/31 08:24:37;;;;;;;2.17;2.07;;;25.60;50.40;;;;;;4958439;29;20479;-66
2021/05/31 08:27:04;;;;;;;2.50;2.40;;;26.20;49.00;;;;;;4958097;29;21013;-66
2021/05/31 08:29:31;;;;;;;2.60;2.20;;;26.50;48.30;;;;;;4958461;29;20482;-66
2021/05/31 08:31:58;;;;;;;2.80;2.60;;;26.00;47.70;;;;;;4958320;28;20478;-65
2021/05/31 08:34:25;;;;;;;2.67;2.53;;;26.00;49.20;;;;;;4958250;29;20840;-65
2021/05/31 08:36:52;;;;;;;3.03;2.77;;;26.10;47.30;;;;;;4958428;28;20459;-67
2021/05/31 08:39:18;;;;;;;4.20;2.60;;;26.10;48.40;;;;;;4957740;29;21016;-66
2021/05/31 08:41:45;;;;;;;3.07;2.50;;;26.40;48.20;;;;;;4957698;28;20483;-66
2021/05/31 08:44:11;;;;;;;2.70;2.50;;;27.00;47.70;;;;;;4958094;29;20467;-66
2021/05/31 08:46:38;;;;;;;4.27;2.67;;;25.90;46.80;;;;;;4957414;28;20487;-66
2021/05/31 08:49:06;;;;;;;2.57;2.40;;;25.70;46.90;;;;;;4957557;29;20821;-66
2021/05/31 08:51:33;;;;;;;2.30;2.10;;;25.80;48.90;;;;;;4957901;28;20486;-65
2021/05/31 08:53:59;;;;;;;2.60;2.40;;;25.70;49.10;;;;;;4957785;29;20518;-66
2021/05/31 08:56:25;;;;;;;2.80;2.60;;;26.00;48.00;;;;;;4957999;29;20440;-65
2021/05/31 08:58:52;;;;;;;5.00;2.63;;;26.20;49.40;;;;;;4957944;29;20440;-66
2021/05/31 09:01:20;;;;;;;2.87;2.70;;;26.10;47.70;;;;;;4957658;28;20490;-66
2021/05/31 09:03:47;;;;;;;2.60;2.40;;;26.20;48.60;;;;;;4957386;29;20461;-67
2021/05/31 09:06:16;;;;;;;2.50;2.40;;;27.30;49.60;;;;;;4957667;29;20475;-66
2021/05/31 09:08:52;;;;;;;5.10;2.53;;;27.60;46.80;;;;;;4957754;29;20466;-66
2021/05/31 09:11:19;;;;;;;2.70;2.60;;;27.70;46.30;;;;;;4957684;28;20479;-66
2021/05/31 09:13:45;;;;;;;4.73;3.00;;;27.80;47.20;;;;;;4957670;29;20460;-66
2021/05/31 09:16:13;;;;;;;3.10;2.93;;;26.90;46.80;;;;;;4957593;29;20451;-65
2021/05/31 09:18:45;;;;;;;2.43;2.33;;;26.30;47.90;;;;;;4957397;29;20483;-66
2021/05/31 09:21:14;;;;;;;3.97;2.47;;;25.90;47.90;;;;;;4957528;28;20480;-66
2021/05/31 09:23:40;;;;;;;2.50;2.40;;;26.30;47.70;;;;;;4957753;29;20463;-66
2021/05/31 09:26:07;;;;;;;2.70;2.50;;;26.60;48.70;;;;;;4957189;29;20530;-66
2021/05/31 09:28:33;;;;;;;2.70;2.50;;;27.40;46.90;;;;;;4957089;29;20452;-66
2021/05/31 09:31:00;;;;;;;2.40;2.30;;;26.80;46.80;;;;;;4956992;28;21001;-66
2021/05/31 09:33:26;;;;;;;2.90;2.70;;;27.50;45.80;;;;;;4957588;29;20455;-66
2021/05/31 09:35:52;;;;;;;2.40;2.20;;;27.40;46.60;;;;;;4956896;29;20448;-66
2021/05/31 09:38:20;;;;;;;3.10;2.60;;;27.40;47.10;;;;;;4957284;29;20478;-66
2021/05/31 09:40:53;;;;;;;3.47;2.70;;;27.70;45.20;;;;;;4957137;28;20479;-66
2021/05/31 09:43:22;;;;;;;2.70;2.60;;;27.70;44.80;;;;;;4957100;29;20444;-66
2021/05/31 09:45:49;;;;;;;3.07;2.87;;;27.60;45.00;;;;;;4956784;29;20490;-66
2021/05/31 09:48:16;;;;;;;2.70;2.50;;;28.30;45.20;;;;;;4956608;29;20466;-67
2021/05/31 09:50:52;;;;;;;2.60;2.37;;;28.40;46.50;;;;;;4956554;28;20526;-67
2021/05/31 09:53:20;;;;;;;2.80;2.70;;;28.40;45.90;;;;;;4956993;29;20443;-66
2021/05/31 09:55:47;;;;;;;2.93;2.73;;;28.70;45.70;;;;;;4956866;29;20440;-63
2021/05/31 09:58:15;;;;;;;2.37;2.27;;;28.50;49.50;;;;;;4956944;28;20455;-66
2021/05/31 10:00:50;;;;;;;3.33;3.00;;;28.60;46.60;;;;;;4956787;28;20542;-66
2021/05/31 10:03:31;;;;;;;2.73;2.63;;;28.70;44.90;;;;;;4956219;29;21029;-67
2021/05/31 10:06:05;;;;;;;3.00;2.80;;;29.10;44.60;;;;;;4956817;29;20463;-66
2021/05/31 10:08:42;;;;;;;4.77;2.83;;;28.40;47.10;;;;;;4956854;28;20527;-66
2021/05/31 10:11:09;;;;;;;9.53;2.53;;;28.60;46.10;;;;;;4956611;28;20479;-66
2021/05/31 10:13:40;;;;;;;2.43;2.23;;;27.60;45.50;;;;;;4956733;29;20466;-66
2021/05/31 10:16:07;;;;;;;2.40;2.30;;;27.60;45.00;;;;;;4956805;28;20578;-66
2021/05/31 10:18:38;;;;;;;2.73;2.53;;;28.10;46.00;;;;;;4957507;29;21168;-66
2021/05/31 10:21:04;;;;;;;2.50;2.40;;;28.20;44.70;;;;;;4957425;28;20488;-67
2021/05/31 10:23:32;;;;;;;2.27;2.17;;;28.50;43.60;;;;;;4957554;29;20455;-66
2021/05/31 10:26:01;;;;;;;2.70;2.50;;;28.90;45.00;;;;;;4957432;29;20475;-67
2021/05/31 10:28:30;;;;;;;2.50;2.30;;;29.10;45.00;;;;;;4957806;28;20443;-66
2021/05/31 10:31:02;;;;;;;2.73;2.57;;;28.70;45.00;;;;;;4957733;28;20978;-67
2021/05/31 10:33:28;;;;;;;2.27;2.17;;;27.80;45.50;;;;;;4957726;29;20978;-66
2021/05/31 10:35:59;;;;;;;2.27;2.17;;;28.10;43.90;;;;;;4957649;29;20447;-67
2021/05/31 10:38:34;;;;;;;2.40;2.30;;;28.50;45.90;;;;;;4959108;29;20504;-67
2021/05/31 10:41:09;;;;;;;2.43;2.33;;;29.10;42.00;;;;;;4958229;28;20475;-67
2021/05/31 10:43:43;;;;;;;2.07;1.90;;;29.10;42.00;;;;;;4958295;29;20439;-67
2021/05/31 10:46:15;;;;;;;4.63;2.53;;;29.50;42.40;;;;;;4958675;29;20522;-65
2021/05/31 10:48:43;;;;;;;2.33;2.13;;;29.60;44.50;;;;;;4959762;28;20443;-64
2021/05/31 10:51:14;;;;;;;2.60;2.40;;;29.20;45.20;;;;;;4958190;28;20478;-64
2021/05/31 10:53:43;;;;;;;3.17;2.10;;;29.00;46.20;;;;;;4957930;29;20443;-64
2021/05/31 10:56:11;;;;;;;2.90;2.70;;;29.20;45.30;;;;;;4955768;29;20951;-64
2021/05/31 10:58:40;;;;;;;2.70;2.50;;;29.10;47.20;;;;;;4955738;29;20455;-64
2021/05/31 11:01:08;;;;;;;2.97;2.73;;;28.50;44.70;;;;;;4955528;28;20487;-68
2021/05/31 11:03:46;;;;;;;2.37;2.27;;;28.70;44.30;;;;;;4955800;29;20523;-67
2021/05/31 11:06:13;;;;;;;3.63;3.33;;;27.90;41.80;;;;;;4955829;29;20471;-66
2021/05/31 11:08:50;;;;;;;2.60;2.50;;;28.10;46.40;;;;;;4955869;29;20467;-67
2021/05/31 11:11:31;;;;;;;5.50;2.97;;;28.20;42.80;;;;;;4958057;28;20827;-66
2021/05/31 11:13:59;;;;;;;2.07;1.97;;;28.00;42.50;;;;;;4957359;29;20809;-66
2021/05/31 11:16:26;;;;;;;2.60;2.30;;;27.80;41.90;;;;;;4957148;29;20506;-66
2021/05/31 11:18:57;;;;;;;2.03;1.93;;;27.80;44.80;;;;;;4957003;29;20456;-66
2021/05/31 11:21:29;;;;;;;2.63;2.50;;;27.50;46.20;;;;;;4957215;28;20787;-66
2021/05/31 11:24:03;;;;;;;2.67;2.50;;;27.00;44.40;;;;;;4957446;29;20444;-66
2021/05/31 11:26:32;;;;;;;2.57;2.47;;;26.70;46.00;;;;;;4957126;29;20468;-66
2021/05/31 11:28:59;;;;;;;2.73;2.63;;;26.50;46.40;;;;;;4956506;29;20452;-67
2021/05/31 11:31:26;;;;;;;3.30;3.10;;;26.40;47.10;;;;;;4956854;28;20471;-66
2021/05/31 11:33:54;;;;;;;2.80;2.63;;;26.30;47.10;;;;;;4956672;29;20568;-66
2021/05/31 11:36:28;;;;;;;3.17;2.57;;;26.00;45.80;;;;;;4956775;29;20455;-66
2021/05/31 11:38:54;;;;;;;2.83;2.50;;;25.60;48.20;;;;;;4956783;29;20459;-66
2021/05/31 11:41:31;;;;;;;2.43;2.30;;;25.30;48.20;;;;;;4956655;28;20526;-65
2021/05/31 11:43:57;;;;;;;3.40;3.20;;;25.10;49.60;;;;;;4955910;28;20439;-66
2021/05/31 11:46:23;;;;;;;2.73;2.63;;;25.30;51.80;;;;;;4955518;29;21026;-67
2021/05/31 11:48:49;;;;;;;2.40;2.30;;;24.90;50.10;;;;;;4955475;29;20462;-67
2021/05/31 11:51:16;;;;;;;4.43;3.10;;;24.90;48.30;;;;;;4955316;28;20550;-66
2021/05/31 11:53:45;;;;;;;2.60;2.40;;;25.20;47.20;;;;;;4955086;29;20451;-67
2021/05/31 11:56:11;;;;;;;2.40;2.30;;;25.20;48.20;;;;;;4955451;29;20460;-67
2021/05/31 11:58:41;;;;;;;2.90;2.70;;;25.30;50.60;;;;;;4955296;29;20482;-67
2021/05/31 12:01:10;;;;;;;3.07;2.87;;;25.60;48.10;;;;;;4954953;28;20487;-67
2021/05/31 12:03:38;;;;;;;3.03;2.57;;;25.80;48.70;;;;;;4955072;29;20456;-67
2021/05/31 12:06:10;;;;;;;2.80;2.27;;;25.80;47.30;;;;;;4954891;29;20475;-67
2021/05/31 12:08:37;;;;;;;3.70;2.77;;;25.60;50.70;;;;;;4955488;29;20443;-67
2021/05/31 12:11:03;;;;;;;2.83;2.63;;;25.90;48.80;;;;;;4955408;28;20483;-66
2021/05/31 12:13:32;;;;;;;2.73;2.63;;;26.10;51.30;;;;;;4954881;29;20981;-67
2021/05/31 12:16:10;;;;;;;2.70;2.60;;;26.20;50.40;;;;;;4955088;28;20456;-66
2021/05/31 12:18:37;;;;;;;3.10;2.90;;;26.20;49.40;;;;;;4955165;28;20471;-67
2021/05/31 12:21:03;;;;;;;2.80;2.60;;;25.50;49.10;;;;;;4954897;28;20525;-67
2021/05/31 12:23:29;;;;;;;3.27;2.97;;;25.50;50.20;;;;;;4957703;29;20511;-67
2021/05/31 12:26:01;;;;;;;8.60;3.03;;;25.70;51.70;;;;;;4958139;29;21060;-65
2021/05/31 12:28:30;;;;;;;3.03;2.73;;;25.80;48.80;;;;;;4958483;28;20463;-65
2021/05/31 12:30:56;;;;;;;2.60;2.50;;;25.60;48.00;;;;;;4958423;28;20479;-67
2021/05/31 12:33:24;;;;;;;3.47;3.17;;;25.30;49.40;;;;;;4958442;29;20452;-66
2021/05/31 12:35:50;;;;;;;2.93;2.73;;;25.30;52.80;;;;;;4958360;29;20826;-67
2021/05/31 12:38:18;;;;;;;2.97;2.77;;;25.40;50.80;;;;;;4958262;29;20492;-67
2021/05/31 12:40:44;;;;;;;5.03;3.27;;;25.50;52.30;;;;;;4958088;28;20491;-66
2021/05/31 12:43:11;;;;;;;3.63;3.30;;;25.40;50.70;;;;;;4958004;28;20539;-66
2021/05/31 12:45:42;;;;;;;2.80;2.60;;;25.40;49.50;;;;;;4957942;29;21052;-66
2021/05/31 12:48:13;;;;;;;3.37;3.00;;;25.00;50.10;;;;;;4957921;29;20456;-65
2021/05/31 12:50:41;;;;;;;3.00;2.70;;;25.00;51.00;;;;;;4958137;28;20506;-66
2021/05/31 12:53:11;;;;;;;3.03;2.83;;;25.00;51.60;;;;;;4958135;29;20530;-65
2021/05/31 12:55:38;;;;;;;4.00;2.80;;;25.20;51.70;;;;;;4958219;29;20470;-67
2021/05/31 12:58:10;;;;;;;4.77;2.70;;;25.20;49.20;;;;;;4958016;29;20462;-66
2021/05/31 13:00:37;;;;;;;4.97;3.00;;;25.20;52.30;;;;;;4957684;28;20490;-66
2021/05/31 13:03:04;;;;;;;3.23;3.10;;;24.80;53.40;;;;;;4957533;29;20436;-66
2021/05/31 13:05:32;;;;;;;3.40;3.20;;;24.70;49.50;;;;;;4957548;29;20486;-67
2021/05/31 13:08:01;;;;;;;3.43;3.03;;;24.60;51.10;;;;;;4957622;29;20459;-67
2021/05/31 13:10:29;;;;;;;2.87;2.77;;;24.50;52.60;;;;;;4957714;28;20467;-67
2021/05/31 13:12:57;;;;;;;2.90;2.70;;;24.70;51.90;;;;;;4957455;29;20463;-66
2021/05/31 13:15:36;;;;;;;3.10;2.90;;;24.80;55.50;;;;;;4957819;29;20451;-66
2021/05/31 13:18:05;;;;;;;2.70;2.60;;;25.00;51.80;;;;;;4958749;29;20462;-66
2021/05/31 13:20:35;;;;;;;2.60;2.50;;;24.90;52.60;;;;;;4958466;28;20463;-65
2021/05/31 13:23:04;;;;;;;2.57;2.47;;;25.20;51.90;;;;;;4957427;29;20538;-67
2021/05/31 13:25:31;;;;;;;3.10;2.90;;;25.30;49.60;;;;;;4957589;29;20511;-66
2021/05/31 13:28:08;;;;;;;3.77;2.90;;;25.40;52.80;;;;;;4957514;29;20495;-65
2021/05/31 13:30:35;;;;;;;3.10;2.93;;;25.60;53.20;;;;;;4957241;28;20439;-67
2021/05/31 13:33:03;;;;;;;3.10;3.00;;;25.70;52.50;;;;;;4956809;28;20456;-66
2021/05/31 13:35:29;;;;;;;2.70;2.50;;;25.70;48.70;;;;;;4957766;29;20456;-66
2021/05/31 13:37:58;;;;;;;2.70;2.40;;;25.50;48.80;;;;;;4957456;29;20451;-66
2021/05/31 13:40:31;;;;;;;3.47;2.30;;;25.00;51.80;;;;;;4957625;28;20848;-66
2021/05/31 13:43:03;;;;;;;2.90;2.70;;;24.90;49.30;;;;;;4956926;29;20440;-65
2021/05/31 13:45:30;;;;;;;2.80;2.67;;;25.00;49.30;;;;;;4956870;29;20479;-66
2021/05/31 13:47:57;;;;;;;3.30;3.10;;;25.00;51.80;;;;;;4956584;29;20455;-66
2021/05/31 13:50:25;;;;;;;2.20;2.10;;;25.00;49.00;;;;;;4956670;28;20456;-66
2021/05/31 13:52:51;;;;;;;4.03;3.03;;;25.20;49.10;;;;;;4957022;29;20510;-66
2021/05/31 13:55:18;;;;;;;2.93;2.63;;;25.00;48.20;;;;;;4956987;29;20466;-66
2021/05/31 13:57:48;;;;;;;2.87;2.77;;;25.10;48.30;;;;;;4956512;29;20983;-66
2021/05/31 14:00:16;;;;;;;3.33;2.93;;;25.20;47.30;;;;;;4956742;29;20462;-66
2021/05/31 14:02:43;;;;;;;2.77;2.57;;;25.00;51.40;;;;;;4956507;29;20448;-66
2021/05/31 14:05:11;;;;;;;5.70;2.97;;;25.00;51.60;;;;;;4956425;29;20977;-67
2021/05/31 14:07:37;;;;;;;5.10;2.90;;;25.20;50.60;;;;;;4956728;29;20456;-67
2021/05/31 14:10:05;;;;;;;2.80;2.70;;;25.10;47.30;;;;;;4956189;29;20977;-66
2021/05/31 14:12:31;;;;;;;2.90;2.70;;;24.80;49.30;;;;;;4956526;28;20486;-67
2021/05/31 14:14:58;;;;;;;3.10;2.90;;;25.00;50.80;;;;;;4956526;29;20518;-66
2021/05/31 14:17:25;;;;;;;4.70;2.73;;;24.70;49.10;;;;;;4956433;29;20510;-67
2021/05/31 14:19:51;;;;;;;2.90;2.70;;;25.00;51.90;;;;;;4956342;29;20467;-66
2021/05/31 14:22:17;;;;;;;2.67;2.47;;;25.20;49.50;;;;;;4956294;28;20479;-66
2021/05/31 14:24:44;;;;;;;6.63;2.63;;;25.00;45.40;;;;;;4956198;29;20456;-67
2021/05/31 14:27:12;;;;;;;2.97;2.77;;;25.00;45.70;;;;;;4956328;29;20539;-66
2021/05/31 14:29:39;;;;;;;3.10;2.80;;;25.10;47.00;;;;;;4956335;29;20459;-66
2021/05/31 14:32:07;;;;;;;2.77;2.57;;;24.90;48.60;;;;;;4956136;28;20491;-67
2021/05/31 14:34:33;;;;;;;3.00;2.80;;;25.00;48.50;;;;;;4956058;29;20466;-66
2021/05/31 14:37:00;;;;;;;2.70;2.50;;;25.00;46.80;;;;;;4956035;29;20459;-66
2021/05/31 14:39:26;;;;;;;2.90;2.70;;;24.60;46.50;;;;;;4955845;28;20455;-67
2021/05/31 14:41:52;;;;;;;2.80;2.60;;;24.50;46.60;;;;;;4955817;28;20475;-67
2021/05/31 14:44:18;;;;;;;2.33;2.23;;;24.40;48.10;;;;;;4956172;28;20455;-67
2021/05/31 14:46:45;;;;;;;2.80;2.60;;;24.60;47.10;;;;;;4955658;29;20483;-67
2021/05/31 14:49:12;;;;;;;3.87;2.83;;;24.50;51.40;;;;;;4955944;29;20466;-66
2021/05/31 14:51:39;;;;;;;2.17;2.10;;;24.70;47.00;;;;;;4955849;28;20475;-66
2021/05/31 14:54:05;;;;;;;3.57;2.40;;;24.70;47.00;;;;;;4955741;29;20518;-67
2021/05/31 14:56:31;;;;;;;6.60;2.93;;;24.40;49.30;;;;;;4955875;29;20455;-67
2021/05/31 14:58:58;;;;;;;3.00;2.90;;;24.20;47.90;;;;;;4955815;29;20460;-66
2021/05/31 15:01:24;;;;;;;2.90;2.47;;;24.20;48.60;;;;;;4955563;28;20498;-67
2021/05/31 15:03:51;;;;;;;4.63;2.50;;;24.30;51.40;;;;;;4955567;29;20825;-67
2021/05/31 15:06:21;;;;;;;2.27;2.17;;;24.40;49.80;;;;;;4955710;28;20482;-66
2021/05/31 15:08:47;;;;;;;2.87;2.67;;;24.50;48.20;;;;;;4955610;28;20547;-66
2021/05/31 15:11:14;;;;;;;2.40;2.30;;;24.60;50.00;;;;;;4955409;28;20476;-67
2021/05/31 15:13:40;;;;;;;2.97;2.77;;;24.20;51.10;;;;;;4955800;29;20462;-66
2021/05/31 15:16:06;;;;;;;2.77;2.57;;;24.10;50.30;;;;;;4955644;29;20456;-67
2021/05/31 15:18:32;;;;;;;2.97;2.87;;;24.30;51.10;;;;;;4955571;29;20481;-66
2021/05/31 15:20:59;;;;;;;2.20;2.10;;;24.20;50.00;;;;;;4955579;28;20479;-66
2021/05/31 15:23:27;;;;;;;2.40;2.30;;;24.40;48.50;;;;;;4955682;29;20467;-66
2021/05/31 15:25:54;;;;;;;2.50;2.30;;;24.50;46.70;;;;;;4955638;29;20574;-66
2021/05/31 15:28:20;;;;;;;2.40;2.30;;;24.60;46.30;;;;;;4955396;29;20510;-65
2021/05/31 15:30:46;;;;;;;3.10;2.90;;;24.60;48.90;;;;;;4955012;28;20982;-67
2021/05/31 15:33:12;;;;;;;2.60;2.50;;;24.60;46.80;;;;;;4955561;29;20466;-65
2021/05/31 15:35:39;;;;;;;8.33;3.23;;;24.30;46.40;;;;;;4956214;29;20809;-66
2021/05/31 15:38:05;;;;;;;3.17;2.83;;;24.30;48.20;;;;;;4955682;29;20517;-67
2021/05/31 15:40:33;;;;;;;3.03;2.57;;;24.30;49.20;;;;;;4955400;28;20468;-67
2021/05/31 15:42:59;;;;;;;2.73;2.50;;;24.30;47.50;;;;;;4955339;29;20462;-66
2021/05/31 15:45:26;;;;;;;3.60;2.30;;;23.90;47.40;;;;;;4955349;29;20490;-67
2021/05/31 15:47:52;;;;;;;3.80;2.90;;;23.60;47.60;;;;;;4955357;29;20455;-66
2021/05/31 15:50:20;;;;;;;4.17;2.40;;;23.40;48.50;;;;;;4955383;28;20466;-66
2021/05/31 15:52:47;;;;;;;2.73;2.53;;;23.40;50.00;;;;;;4955242;29;20459;-66
2021/05/31 15:55:15;;;;;;;2.60;2.40;;;23.70;50.30;;;;;;4955223;29;20456;-66
2021/05/31 15:57:43;;;;;;;2.77;2.57;;;23.70;50.50;;;;;;4958437;28;20455;-66
2021/05/31 16:00:10;;;;;;;2.90;2.70;;;23.90;48.60;;;;;;4959245;28;20787;-67
2021/05/31 16:02:37;;;;;;;2.90;2.70;;;23.80;47.80;;;;;;4958551;28;20479;-66
2021/05/31 16:05:04;;;;;;;2.80;2.20;;;23.80;47.80;;;;;;4959232;29;20459;-66
2021/05/31 16:07:30;;;;;;;2.50;2.30;;;23.80;48.90;;;;;;4958694;28;20479;-66
2021/05/31 16:09:56;;;;;;;2.60;2.40;;;23.90;48.90;;;;;;4958602;29;21009;-66
2021/05/31 16:12:23;;;;;;;4.07;2.73;;;24.10;48.50;;;;;;4958646;28;20479;-66
2021/05/31 16:14:50;;;;;;;2.40;2.30;;;24.10;48.20;;;;;;4958559;28;20463;-67
2021/05/31 16:17:17;;;;;;;2.53;2.37;;;24.30;48.00;;;;;;4958505;29;20452;-66
2021/05/31 16:19:43;;;;;;;3.93;2.07;;;24.30;47.70;;;;;;4958738;29;20455;-66
2021/05/31 16:22:12;;;;;;;2.47;2.37;;;24.30;47.80;;;;;;4958527;28;20482;-67
2021/05/31 16:24:44;;;;;;;2.43;2.30;;;24.30;48.20;;;;;;4958469;29;20514;-66
2021/05/31 16:27:11;;;;;;;3.60;3.30;;;24.20;47.60;;;;;;4958511;29;20479;-66
2021/05/31 16:29:38;;;;;;;2.37;2.27;;;24.20;47.80;;;;;;4958538;29;20458;-66
2021/05/31 16:32:06;;;;;;;3.23;2.87;;;24.30;46.70;;;;;;4958463;28;20486;-66
2021/05/31 16:34:32;;;;;;;3.43;2.57;;;24.20;48.20;;;;;;4958101;29;20459;-66
2021/05/31 16:36:59;;;;;;;2.70;2.50;;;24.00;48.30;;;;;;4958938;29;20451;-66
2021/05/31 16:39:25;;;;;;;2.40;2.20;;;23.90;48.50;;;;;;4958389;29;20885;-66
2021/05/31 16:41:52;;;;;;;2.57;2.47;;;23.80;47.70;;;;;;4958150;28;20475;-66
2021/05/31 16:44:18;;;;;;;2.40;2.20;;;23.70;48.10;;;;;;4958848;29;20506;-66
2021/05/31 16:46:44;;;;;;;2.30;2.17;;;23.60;47.90;;;;;;4958005;29;20506;-66
2021/05/31 16:49:12;;;;;;;2.80;2.70;;;23.50;48.20;;;;;;4958127;29;20463;-66
2021/05/31 16:51:38;;;;;;;5.63;3.27;;;23.40;48.80;;;;;;4957905;28;20486;-66
2021/05/31 16:54:05;;;;;;;2.93;2.83;;;23.20;50.40;;;;;;4957604;29;20455;-66
2021/05/31 16:56:31;;;;;;;3.80;2.87;;;23.20;50.80;;;;;;4957445;29;20953;-66
2021/05/31 16:58:57;;;;;;;3.03;2.77;;;23.20;50.80;;;;;;4957880;29;20507;-66